sensor_id;sensor_type;location;lat;lon;timestamp;pressure;altitude;pressure_sealevel;temperature;humidity
41636;BME280;27623;51.966;4.602;2023-02-11T00:01:34;63982.53;;;8.13;100.00
41636;BME280;27623;51.966;4.602;2023-02-11T00:04:00;63968.06;;;8.09;100.00
41636;BME280;27623;51.966;4.602;2023-02-11T00:06:27;63987.97;;;8.18;100.00
41636;BME280;27623;51.966;4.602;2023-02-11T00:08:53;63985.28;;;8.08;100.00
41636;BME280;27623;51.966;4.602;2023-02-11T00:11:20;63982.75;;;8.08;100.00
41636;BME280;27623;51.966;4.602;2023-02-11T00:13:46;63977.31;;;8.10;100.00
41636;BME280;27623;51.966;4.602;2023-02-11T00:16:18;63976.03;;;8.07;100.00
41636;BME280;27623;51.966;4.602;2023-02-11T00:18:44;63982.75;;;8.08;100.00
41636;BME280;27623;51.966;4.602;2023-02-11T00:21:14;63994.72;;;8.05;100.00
41636;BME280;27623;51.966;4.602;2023-02-11T00:23:40;64004.09;;;8.16;100.00
41636;BME280;27623;51.966;4.602;2023-02-11T00:26:18;64014.44;;;8.19;99.90
41636;BME280;27623;51.966;4.602;2023-02-11T00:28:45;63966.25;;;8.05;99.25
41636;BME280;27623;51.966;4.602;2023-02-11T00:31:11;63973.31;;;8.04;99.82
41636;BME280;27623;51.966;4.602;2023-02-11T00:33:37;64005.22;;;8.03;100.00
41636;BME280;27623;51.966;4.602;2023-02-11T00:36:08;63989.63;;;8.05;99.10
41636;BME280;27623;51.966;4.602;2023-02-11T00:38:34;64027.84;;;8.15;99.19
41636;BME280;27623;51.966;4.602;2023-02-11T00:40:59;63949.78;;;7.87;100.00
41636;BME280;27623;51.966;4.602;2023-02-11T00:43:25;63981.66;;;8.00;99.81
41636;BME280;27623;51.966;4.602;2023-02-11T00:45:50;63957.03;;;7.82;100.00
41636;BME280;27623;51.966;4.602;2023-02-11T00:48:16;63961.03;;;7.88;100.00
41636;BME280;27623;51.966;4.602;2023-02-11T00:50:41;63942.88;;;7.97;100.00
41636;BME280;27623;51.966;4.602;2023-02-11T00:53:07;63997.97;;;8.01;99.65
41636;BME280;27623;51.966;4.602;2023-02-11T00:55:32;64017.53;;;8.12;99.28
41636;BME280;27623;51.966;4.602;2023-02-11T00:57:57;63985.44;;;8.11;98.89
41636;BME280;27623;51.966;4.602;2023-02-11T01:00:25;63992.34;;;8.08;99.04
41636;BME280;27623;51.966;4.602;2023-02-11T01:02:50;64014.81;;;8.24;98.70
41636;BME280;27623;51.966;4.602;2023-02-11T01:05:16;64004.84;;;8.12;98.37
41636;BME280;27623;51.966;4.602;2023-02-11T01:07:42;63999.22;;;8.12;99.38
41636;BME280;27623;51.966;4.602;2023-02-11T01:10:07;63986.19;;;8.07;98.82
41636;BME280;27623;51.966;4.602;2023-02-11T01:12:33;63978.75;;;8.02;99.36
41636;BME280;27623;51.966;4.602;2023-02-11T01:14:58;63968.97;;;8.07;99.24
41636;BME280;27623;51.966;4.602;2023-02-11T01:17:24;63956.50;;;7.88;100.00
41636;BME280;27623;51.966;4.602;2023-02-11T01:19:49;63972.25;;;7.89;100.00
41636;BME280;27623;51.966;4.602;2023-02-11T01:22:14;63997.25;;;7.98;100.00
41636;BME280;27623;51.966;4.602;2023-02-11T01:24:40;64011.00;;;7.99;100.00
41636;BME280;27623;51.966;4.602;2023-02-11T01:27:05;63995.78;;;7.99;100.00
41636;BME280;27623;51.966;4.602;2023-02-11T01:29:31;63996.34;;;8.00;100.00
41636;BME280;27623;51.966;4.602;2023-02-11T01:31:56;63995.78;;;7.99;100.00
41636;BME280;27623;51.966;4.602;2023-02-11T01:34:22;63979.84;;;7.96;100.00
41636;BME280;27623;51.966;4.602;2023-02-11T01:36:47;63978.75;;;7.95;100.00
41636;BME280;27623;51.966;4.602;2023-02-11T01:39:12;63976.22;;;7.95;100.00
41636;BME280;27623;51.966;4.602;2023-02-11T01:41:38;63973.31;;;7.97;100.00
41636;BME280;27623;51.966;4.602;2023-02-11T01:46:48;63975.31;;;7.97;100.00
41636;BME280;27623;51.966;4.602;2023-02-11T01:49:26;63978.41;;;8.04;100.00
41636;BME280;27623;51.966;4.602;2023-02-11T01:54:44;63959.56;;;7.75;100.00
41636;BME280;27623;51.966;4.602;2023-02-11T01:57:30;63977.16;;;7.79;100.00
41636;BME280;27623;51.966;4.602;2023-02-11T02:00:06;63926.81;;;7.56;100.00
41636;BME280;27623;51.966;4.602;2023-02-11T02:05:34;63939.13;;;7.58;100.00
41636;BME280;27623;51.966;4.602;2023-02-11T02:08:12;63944.94;;;7.68;100.00
41636;BME280;27623;51.966;4.602;2023-02-11T02:10:41;63955.41;;;7.73;100.00
41636;BME280;27623;51.966;4.602;2023-02-11T02:13:07;63935.84;;;7.76;100.00
41636;BME280;27623;51.966;4.602;2023-02-11T02:15:33;63972.97;;;7.71;100.00
41636;BME280;27623;51.966;4.602;2023-02-11T02:18:19;63924.63;;;7.68;100.00
41636;BME280;27623;51.966;4.602;2023-02-11T02:26:25;63957.75;;;7.85;100.00
41636;BME280;27623;51.966;4.602;2023-02-11T02:29:15;63949.44;;;7.75;100.00
41636;BME280;27623;51.966;4.602;2023-02-11T02:34:43;63970.25;;;7.75;100.00
41636;BME280;27623;51.966;4.602;2023-02-11T02:37:20;63958.31;;;7.85;100.00
41636;BME280;27623;51.966;4.602;2023-02-11T02:39:49;63967.72;;;7.82;100.00
41636;BME280;27623;51.966;4.602;2023-02-11T02:42:15;63964.47;;;7.79;100.00
41636;BME280;27623;51.966;4.602;2023-02-11T02:44:50;63931.31;;;7.77;100.00
41636;BME280;27623;51.966;4.602;2023-02-11T02:47:16;63960.84;;;7.78;100.00
41636;BME280;27623;51.966;4.602;2023-02-11T02:49:42;63932.78;;;7.62;100.00
41636;BME280;27623;51.966;4.602;2023-02-11T02:55:53;63899.28;;;7.68;100.00
41636;BME280;27623;51.966;4.602;2023-02-11T03:01:41;63936.41;;;7.55;100.00
41636;BME280;27623;51.966;4.602;2023-02-11T03:04:21;63901.66;;;7.30;100.00
41636;BME280;27623;51.966;4.602;2023-02-11T03:06:59;63885.56;;;7.32;100.00
41636;BME280;27623;51.966;4.602;2023-02-11T03:09:33;63923.56;;;7.39;100.00
41636;BME280;27623;51.966;4.602;2023-02-11T03:12:03;63927.19;;;7.47;100.00
41636;BME280;27623;51.966;4.602;2023-02-11T03:14:31;63910.34;;;7.38;100.00
41636;BME280;27623;51.966;4.602;2023-02-11T03:16:58;63922.84;;;7.36;100.00
41636;BME280;27623;51.966;4.602;2023-02-11T03:19:28;63904.75;;;7.38;100.00
41636;BME280;27623;51.966;4.602;2023-02-11T03:21:55;63875.78;;;7.37;100.00
41636;BME280;27623;51.966;4.602;2023-02-11T03:24:31;63899.88;;;7.26;100.00
41636;BME280;27623;51.966;4.602;2023-02-11T03:27:01;63899.69;;;7.38;100.00
41636;BME280;27623;51.966;4.602;2023-02-11T03:29:38;63902.22;;;7.31;100.00
41636;BME280;27623;51.966;4.602;2023-02-11T03:32:12;63884.09;;;7.33;100.00
41636;BME280;27623;51.966;4.602;2023-02-11T03:37:23;63920.50;;;7.38;100.00
41636;BME280;27623;51.966;4.602;2023-02-11T03:40:04;63906.56;;;7.42;100.00
41636;BME280;27623;51.966;4.602;2023-02-11T03:42:37;63928.09;;;7.31;100.00
41636;BME280;27623;51.966;4.602;2023-02-11T03:45:08;63895.50;;;7.29;100.00
41636;BME280;27623;51.966;4.602;2023-02-11T03:47:37;63900.75;;;7.32;100.00
41636;BME280;27623;51.966;4.602;2023-02-11T03:50:07;63918.50;;;7.39;100.00
41636;BME280;27623;51.966;4.602;2023-02-11T03:52:34;63897.16;;;7.31;100.00
41636;BME280;27623;51.966;4.602;2023-02-11T03:55:06;63891.34;;;7.35;100.00
41636;BME280;27623;51.966;4.602;2023-02-11T03:57:33;63889.91;;;7.29;100.00
41636;BME280;27623;51.966;4.602;2023-02-11T03:59:59;63897.16;;;7.38;100.00
41636;BME280;27623;51.966;4.602;2023-02-11T04:02:32;63933.53;;;7.22;100.00
41636;BME280;27623;51.966;4.602;2023-02-11T04:04:58;63940.06;;;7.42;100.00
41636;BME280;27623;51.966;4.602;2023-02-11T04:07:24;63930.63;;;7.38;100.00
41636;BME280;27623;51.966;4.602;2023-02-11T04:09:52;63933.16;;;7.38;100.00
41636;BME280;27623;51.966;4.602;2023-02-11T04:12:18;63904.56;;;7.28;100.00
41636;BME280;27623;51.966;4.602;2023-02-11T04:14:43;63883.22;;;7.13;100.00
41636;BME280;27623;51.966;4.602;2023-02-11T04:17:09;63882.50;;;7.17;100.00
41636;BME280;27623;51.966;4.602;2023-02-11T04:19:40;63930.28;;;7.26;100.00
41636;BME280;27623;51.966;4.602;2023-02-11T04:22:06;63906.41;;;7.25;100.00
41636;BME280;27623;51.966;4.602;2023-02-11T04:24:31;63883.94;;;7.30;100.00
41636;BME280;27623;51.966;4.602;2023-02-11T04:26:57;63921.03;;;7.32;100.00
41636;BME280;27623;51.966;4.602;2023-02-11T04:29:22;63935.88;;;7.48;100.00
41636;BME280;27623;51.966;4.602;2023-02-11T04:31:48;63899.31;;;7.40;100.00
41636;BME280;27623;51.966;4.602;2023-02-11T04:34:14;63957.22;;;7.49;100.00
41636;BME280;27623;51.966;4.602;2023-02-11T04:36:39;63916.53;;;7.46;100.00
41636;BME280;27623;51.966;4.602;2023-02-11T04:39:05;63913.06;;;7.41;100.00
41636;BME280;27623;51.966;4.602;2023-02-11T04:41:30;63935.88;;;7.48;100.00
41636;BME280;27623;51.966;4.602;2023-02-11T04:43:56;63900.03;;;7.29;100.00
41636;BME280;27623;51.966;4.602;2023-02-11T04:46:21;63892.28;;;7.12;100.00
41636;BME280;27623;51.966;4.602;2023-02-11T04:48:46;63906.03;;;7.20;100.00
41636;BME280;27623;51.966;4.602;2023-02-11T04:51:12;63890.44;;;7.29;100.00
41636;BME280;27623;51.966;4.602;2023-02-11T04:53:37;63906.56;;;7.28;100.00
41636;BME280;27623;51.966;4.602;2023-02-11T04:56:03;63902.03;;;7.28;100.00
41636;BME280;27623;51.966;4.602;2023-02-11T04:58:28;63923.75;;;7.34;100.00
41636;BME280;27623;51.966;4.602;2023-02-11T05:00:54;63887.56;;;7.17;100.00
41636;BME280;27623;51.966;4.602;2023-02-11T05:03:19;63883.41;;;7.15;100.00
41636;BME280;27623;51.966;4.602;2023-02-11T05:05:44;63881.78;;;7.14;100.00
41636;BME280;27623;51.966;4.602;2023-02-11T05:08:11;63892.63;;;7.17;100.00
41636;BME280;27623;51.966;4.602;2023-02-11T05:10:37;63916.88;;;7.30;100.00
41636;BME280;27623;51.966;4.602;2023-02-11T05:13:02;63913.09;;;7.27;100.00
41636;BME280;27623;51.966;4.602;2023-02-11T05:15:28;63902.06;;;7.21;100.00
41636;BME280;27623;51.966;4.602;2023-02-11T05:17:54;63911.81;;;7.30;100.00
41636;BME280;27623;51.966;4.602;2023-02-11T05:20:20;63895.72;;;7.17;100.00
41636;BME280;27623;51.966;4.602;2023-02-11T05:22:45;63939.50;;;7.42;100.00
41636;BME280;27623;51.966;4.602;2023-02-11T05:25:11;63950.19;;;7.49;100.00
41636;BME280;27623;51.966;4.602;2023-02-11T05:27:36;63936.78;;;7.53;100.00
41636;BME280;27623;51.966;4.602;2023-02-11T05:30:03;63916.88;;;7.44;100.00
41636;BME280;27623;51.966;4.602;2023-02-11T05:32:29;63937.50;;;7.35;100.00
41636;BME280;27623;51.966;4.602;2023-02-11T05:34:54;63905.47;;;7.34;100.00
41636;BME280;27623;51.966;4.602;2023-02-11T05:37:19;63924.31;;;7.42;100.00
41636;BME280;27623;51.966;4.602;2023-02-11T05:39:45;63947.13;;;7.42;100.00
41636;BME280;27623;51.966;4.602;2023-02-11T05:42:10;63936.06;;;7.43;100.00
41636;BME280;27623;51.966;4.602;2023-02-11T05:44:36;63892.63;;;7.31;100.00
41636;BME280;27623;51.966;4.602;2023-02-11T05:47:01;63921.78;;;7.42;100.00
41636;BME280;27623;51.966;4.602;2023-02-11T05:49:29;63900.94;;;7.41;100.00
41636;BME280;27623;51.966;4.602;2023-02-11T05:51:54;63925.38;;;7.36;100.00
41636;BME280;27623;51.966;4.602;2023-02-11T05:54:22;63914.88;;;7.31;100.00
41636;BME280;27623;51.966;4.602;2023-02-11T05:56:50;63909.63;;;7.35;100.00
41636;BME280;27623;51.966;4.602;2023-02-11T05:59:15;63933.00;;;7.36;100.00
41636;BME280;27623;51.966;4.602;2023-02-11T06:01:41;63922.31;;;7.35;100.00
41636;BME280;27623;51.966;4.602;2023-02-11T06:04:07;63922.84;;;7.36;100.00
41636;BME280;27623;51.966;4.602;2023-02-11T06:06:32;63925.19;;;7.33;100.00
41636;BME280;27623;51.966;4.602;2023-02-11T06:08:58;63905.66;;;7.29;100.00
41636;BME280;27623;51.966;4.602;2023-02-11T06:11:23;63916.34;;;7.30;100.00
41636;BME280;27623;51.966;4.602;2023-02-11T06:13:50;63889.75;;;7.19;100.00
41636;BME280;27623;51.966;4.602;2023-02-11T06:16:15;63925.22;;;7.26;100.00
41636;BME280;27623;51.966;4.602;2023-02-11T06:18:41;63907.09;;;7.42;100.00
41636;BME280;27623;51.966;4.602;2023-02-11T06:21:08;63921.94;;;7.30;100.00
41636;BME280;27623;51.966;4.602;2023-02-11T06:23:33;63912.56;;;7.26;100.00
41636;BME280;27623;51.966;4.602;2023-02-11T06:26:04;63898.78;;;7.39;100.00
41636;BME280;27623;51.966;4.602;2023-02-11T06:28:30;63929.56;;;7.37;100.00
41636;BME280;27623;51.966;4.602;2023-02-11T06:30:56;63914.91;;;7.23;100.00
41636;BME280;27623;51.966;4.602;2023-02-11T06:33:22;63916.16;;;7.34;100.00
41636;BME280;27623;51.966;4.602;2023-02-11T06:35:47;63946.56;;;7.34;100.00
41636;BME280;27623;51.966;4.602;2023-02-11T06:38:13;63919.59;;;7.33;100.00
41636;BME280;27623;51.966;4.602;2023-02-11T06:40:38;63922.50;;;7.38;100.00
41636;BME280;27623;51.966;4.602;2023-02-11T06:43:04;63917.78;;;7.36;100.00
41636;BME280;27623;51.966;4.602;2023-02-11T06:45:29;63954.16;;;7.34;100.00
41636;BME280;27623;51.966;4.602;2023-02-11T06:47:54;63898.78;;;7.25;100.00
41636;BME280;27623;51.966;4.602;2023-02-11T06:50:20;63905.09;;;7.29;100.00
41636;BME280;27623;51.966;4.602;2023-02-11T06:52:45;63909.81;;;7.38;100.00
41636;BME280;27623;51.966;4.602;2023-02-11T06:55:11;63910.34;;;7.38;100.00
41636;BME280;27623;51.966;4.602;2023-02-11T06:57:36;63924.47;;;7.44;100.00
41636;BME280;27623;51.966;4.602;2023-02-11T07:00:03;63936.78;;;7.39;100.00
41636;BME280;27623;51.966;4.602;2023-02-11T07:02:28;63888.28;;;7.13;100.00
41636;BME280;27623;51.966;4.602;2023-02-11T07:04:53;63921.75;;;7.28;100.00
41636;BME280;27623;51.966;4.602;2023-02-11T07:07:19;63938.78;;;7.39;100.00
41636;BME280;27623;51.966;4.602;2023-02-11T07:09:44;63942.03;;;7.35;100.00
41636;BME280;27623;51.966;4.602;2023-02-11T07:12:10;63908.91;;;7.39;100.00
41636;BME280;27623;51.966;4.602;2023-02-11T07:14:35;63902.56;;;7.29;100.00
41636;BME280;27623;51.966;4.602;2023-02-11T07:17:00;63932.81;;;7.40;100.00
41636;BME280;27623;51.966;4.602;2023-02-11T07:19:28;63922.47;;;7.31;100.00
41636;BME280;27623;51.966;4.602;2023-02-11T07:21:53;63950.19;;;7.35;100.00
41636;BME280;27623;51.966;4.602;2023-02-11T07:24:19;63936.97;;;7.35;100.00
41636;BME280;27623;51.966;4.602;2023-02-11T07:26:44;63959.78;;;7.35;100.00
41636;BME280;27623;51.966;4.602;2023-02-11T07:29:10;63938.97;;;7.27;100.00
41636;BME280;27623;51.966;4.602;2023-02-11T07:31:35;63913.63;;;7.34;100.00
41636;BME280;27623;51.966;4.602;2023-02-11T07:34:01;63955.25;;;7.35;100.00
41636;BME280;27623;51.966;4.602;2023-02-11T07:36:28;63899.69;;;7.31;100.00
41636;BME280;27623;51.966;4.602;2023-02-11T07:38:54;63953.09;;;7.40;100.00
41636;BME280;27623;51.966;4.602;2023-02-11T07:41:21;63954.34;;;7.51;100.00
41636;BME280;27623;51.966;4.602;2023-02-11T07:43:47;63941.47;;;7.55;100.00
41636;BME280;27623;51.966;4.602;2023-02-11T07:46:18;63939.69;;;7.44;100.00
41636;BME280;27623;51.966;4.602;2023-02-11T07:48:44;63948.72;;;7.50;100.00
41636;BME280;27623;51.966;4.602;2023-02-11T07:51:20;63914.16;;;7.42;100.00
41636;BME280;27623;51.966;4.602;2023-02-11T07:53:46;63913.97;;;7.39;100.00
41636;BME280;27623;51.966;4.602;2023-02-11T07:56:13;63956.88;;;7.44;100.00
41636;BME280;27623;51.966;4.602;2023-02-11T07:58:40;63932.81;;;7.40;100.00
41636;BME280;27623;51.966;4.602;2023-02-11T08:01:09;63911.81;;;7.44;100.00
41636;BME280;27623;51.966;4.602;2023-02-11T08:03:36;63911.63;;;7.42;100.00
41636;BME280;27623;51.966;4.602;2023-02-11T08:06:06;63944.22;;;7.37;100.00
41636;BME280;27623;51.966;4.602;2023-02-11T08:08:32;63915.97;;;7.17;100.00
41636;BME280;27623;51.966;4.602;2023-02-11T08:10:57;63879.28;;;6.85;100.00
41636;BME280;27623;51.966;4.602;2023-02-11T08:13:23;63896.63;;;7.09;100.00
41636;BME280;27623;51.966;4.602;2023-02-11T08:15:51;63885.06;;;6.81;100.00
41636;BME280;27623;51.966;4.602;2023-02-11T08:18:16;63851.06;;;6.80;100.00
41636;BME280;27623;51.966;4.602;2023-02-11T08:20:42;63833.31;;;6.66;100.00
41636;BME280;27623;51.966;4.602;2023-02-11T08:23:07;63846.53;;;6.74;100.00
41636;BME280;27623;51.966;4.602;2023-02-11T08:25:34;63834.41;;;6.74;100.00
41636;BME280;27623;51.966;4.602;2023-02-11T08:28:00;63853.03;;;6.80;100.00
41636;BME280;27623;51.966;4.602;2023-02-11T08:30:25;63864.97;;;6.98;100.00
41636;BME280;27623;51.966;4.602;2023-02-11T08:32:51;63867.50;;;6.84;100.00
41636;BME280;27623;51.966;4.602;2023-02-11T08:35:16;63863.53;;;6.85;100.00
41636;BME280;27623;51.966;4.602;2023-02-11T08:37:41;63859.56;;;6.79;100.00
41636;BME280;27623;51.966;4.602;2023-02-11T08:40:07;63855.38;;;6.92;100.00
41636;BME280;27623;51.966;4.602;2023-02-11T08:42:33;63897.88;;;7.12;100.00
41636;BME280;27623;51.966;4.602;2023-02-11T08:44:58;63900.06;;;7.14;100.00
41636;BME280;27623;51.966;4.602;2023-02-11T08:47:23;63902.94;;;7.12;100.00
41636;BME280;27623;51.966;4.602;2023-02-11T08:49:49;63910.00;;;7.26;100.00
41636;BME280;27623;51.966;4.602;2023-02-11T08:52:14;63919.78;;;7.21;100.00
41636;BME280;27623;51.966;4.602;2023-02-11T08:54:40;63901.16;;;7.22;100.00
41636;BME280;27623;51.966;4.602;2023-02-11T08:57:05;63893.38;;;7.06;100.00
41636;BME280;27623;51.966;4.602;2023-02-11T08:59:30;63919.06;;;7.18;100.00
41636;BME280;27623;51.966;4.602;2023-02-11T09:01:56;63895.91;;;7.20;100.00
41636;BME280;27623;51.966;4.602;2023-02-11T09:04:22;63900.94;;;7.34;100.00
41636;BME280;27623;51.966;4.602;2023-02-11T09:06:47;63925.75;;;7.41;100.00
41636;BME280;27623;51.966;4.602;2023-02-11T09:09:16;63907.28;;;7.31;100.00
41636;BME280;27623;51.966;4.602;2023-02-11T09:11:42;63919.06;;;7.39;100.00
41636;BME280;27623;51.966;4.602;2023-02-11T09:14:15;63933.88;;;7.48;100.00
41636;BME280;27623;51.966;4.602;2023-02-11T09:16:42;63940.75;;;7.52;100.00
41636;BME280;27623;51.966;4.602;2023-02-11T09:19:08;63902.00;;;7.56;100.00
41636;BME280;27623;51.966;4.602;2023-02-11T09:21:34;63950.00;;;7.61;100.00
41636;BME280;27623;51.966;4.602;2023-02-11T09:23:59;63930.97;;;7.57;100.00
41636;BME280;27623;51.966;4.602;2023-02-11T09:26:27;63981.88;;;7.67;100.00
41636;BME280;27623;51.966;4.602;2023-02-11T09:28:53;63928.63;;;7.60;100.00
41636;BME280;27623;51.966;4.602;2023-02-11T09:31:24;63980.59;;;7.64;100.00
41636;BME280;27623;51.966;4.602;2023-02-11T09:33:54;63938.56;;;7.72;100.00
41636;BME280;27623;51.966;4.602;2023-02-11T09:36:23;63993.63;;;7.83;100.00
41636;BME280;27623;51.966;4.602;2023-02-11T09:38:49;63997.63;;;7.89;100.00
41636;BME280;27623;51.966;4.602;2023-02-11T09:42:09;63997.78;;;7.99;100.00
41636;BME280;27623;51.966;4.602;2023-02-11T09:44:27;63989.63;;;8.05;100.00
41636;BME280;27623;51.966;4.602;2023-02-11T09:47:00;64024.59;;;8.12;100.00
41636;BME280;27623;51.966;4.602;2023-02-11T09:49:44;64076.81;;;8.18;100.00
41636;BME280;27623;51.966;4.602;2023-02-11T09:55:13;64055.41;;;8.31;100.00
41636;BME280;27623;51.966;4.602;2023-02-11T09:57:40;64039.81;;;8.40;100.00
41636;BME280;27623;51.966;4.602;2023-02-11T10:00:27;64073.19;;;8.45;100.00
41636;BME280;27623;51.966;4.602;2023-02-11T10:14:18;64105.09;;;8.73;100.00
41636;BME280;27623;51.966;4.602;2023-02-11T10:19:35;64115.97;;;8.90;100.00
41636;BME280;27623;51.966;4.602;2023-02-11T10:22:12;64084.75;;;8.80;100.00
41636;BME280;27623;51.966;4.602;2023-02-11T10:24:40;64102.91;;;8.85;100.00
41636;BME280;27623;51.966;4.602;2023-02-11T10:27:18;64081.44;;;8.98;100.00
41636;BME280;27623;51.966;4.602;2023-02-11T10:33:02;64096.31;;;9.00;100.00
41636;BME280;27623;51.966;4.602;2023-02-11T10:35:28;64135.34;;;9.06;100.00
41636;BME280;27623;51.966;4.602;2023-02-11T10:37:54;64127.38;;;9.08;100.00
41636;BME280;27623;51.966;4.602;2023-02-11T10:40:25;64127.72;;;9.13;100.00
41636;BME280;27623;51.966;4.602;2023-02-11T10:42:54;64135.50;;;9.15;100.00
41636;BME280;27623;51.966;4.602;2023-02-11T10:45:25;64135.13;;;9.24;100.00
41636;BME280;27623;51.966;4.602;2023-02-11T10:47:55;64136.78;;;9.26;100.00
41636;BME280;27623;51.966;4.602;2023-02-11T10:50:26;64126.97;;;9.31;100.00
41636;BME280;27623;51.966;4.602;2023-02-11T10:52:52;64198.88;;;9.34;100.00
41636;BME280;27623;51.966;4.602;2023-02-11T10:55:23;64148.03;;;9.34;100.00
41636;BME280;27623;51.966;4.602;2023-02-11T10:58:00;64125.16;;;9.34;100.00
41636;BME280;27623;51.966;4.602;2023-02-11T11:00:39;64154.72;;;9.36;100.00
41636;BME280;27623;51.966;4.602;2023-02-11T11:03:16;64162.16;;;9.40;100.00
41636;BME280;27623;51.966;4.602;2023-02-11T11:05:51;64166.88;;;9.42;100.00
41636;BME280;27623;51.966;4.602;2023-02-11T11:08:18;64156.16;;;9.49;100.00
41636;BME280;27623;51.966;4.602;2023-02-11T11:11:04;64171.78;;;9.54;100.00
41636;BME280;27623;51.966;4.602;2023-02-11T11:13:32;64204.09;;;9.58;100.00
41636;BME280;27623;51.966;4.602;2023-02-11T11:18:42;64225.00;;;9.58;100.00
41636;BME280;27623;51.966;4.602;2023-02-11T11:21:21;64207.91;;;9.61;100.00
41636;BME280;27623;51.966;4.602;2023-02-11T11:26:16;64194.28;;;9.63;100.00
41636;BME280;27623;51.966;4.602;2023-02-11T11:31:20;64209.38;;;9.68;100.00
41636;BME280;27623;51.966;4.602;2023-02-11T11:33:47;64190.66;;;9.69;100.00
41636;BME280;27623;51.966;4.602;2023-02-11T11:36:15;64183.19;;;9.72;100.00
41636;BME280;27623;51.966;4.602;2023-02-11T11:38:45;64201.00;;;9.72;100.00
41636;BME280;27623;51.966;4.602;2023-02-11T11:41:20;64203.72;;;9.74;100.00
41636;BME280;27623;51.966;4.602;2023-02-11T11:47:04;64183.56;;;9.70;100.00
41636;BME280;27623;51.966;4.602;2023-02-11T11:52:42;64186.09;;;9.70;100.00
41636;BME280;27623;51.966;4.602;2023-02-11T11:55:19;64219.19;;;9.70;100.00
41636;BME280;27623;51.966;4.602;2023-02-11T11:57:46;64207.00;;;9.63;100.00
41636;BME280;27623;51.966;4.602;2023-02-11T12:00:14;64202.47;;;9.63;100.00
41636;BME280;27623;51.966;4.602;2023-02-11T12:06:14;64180.47;;;9.62;100.00
41636;BME280;27623;51.966;4.602;2023-02-11T12:08:59;64198.28;;;9.69;100.00
41636;BME280;27623;51.966;4.602;2023-02-11T12:11:38;64179.56;;;9.56;100.00
41636;BME280;27623;51.966;4.602;2023-02-11T12:17:13;64190.28;;;9.64;100.00
41636;BME280;27623;51.966;4.602;2023-02-11T12:25:42;64171.38;;;9.70;100.00
41636;BME280;27623;51.966;4.602;2023-02-11T12:34:11;64200.09;;;9.73;100.00
41636;BME280;27623;51.966;4.602;2023-02-11T12:47:26;64178.25;;;9.88;100.00
41636;BME280;27623;51.966;4.602;2023-02-11T12:50:13;64220.22;;;9.92;100.00
41636;BME280;27623;51.966;4.602;2023-02-11T12:55:21;64220.91;;;10.09;100.00
41636;BME280;27623;51.966;4.602;2023-02-11T12:57:49;64227.81;;;10.13;100.00
41636;BME280;27623;51.966;4.602;2023-02-11T13:00:21;64285.09;;;10.17;100.00
41636;BME280;27623;51.966;4.602;2023-02-11T13:05:26;64262.19;;;10.24;100.00
41636;BME280;27623;51.966;4.602;2023-02-11T13:07:57;64271.63;;;10.28;100.00
41636;BME280;27623;51.966;4.602;2023-02-11T13:10:32;64288.91;;;10.27;100.00
41636;BME280;27623;51.966;4.602;2023-02-11T13:13:01;64264.16;;;10.30;100.00
41636;BME280;27623;51.966;4.602;2023-02-11T13:15:53;64286.34;;;10.35;100.00
41636;BME280;27623;51.966;4.602;2023-02-11T13:18:55;64316.56;;;10.37;100.00
41636;BME280;27623;51.966;4.602;2023-02-11T13:21:32;64284.50;;;10.45;100.00
41636;BME280;27623;51.966;4.602;2023-02-11T13:26:44;64289.56;;;10.59;100.00
41636;BME280;27623;51.966;4.602;2023-02-11T13:32:10;64304.66;;;10.63;100.00
41636;BME280;27623;51.966;4.602;2023-02-11T13:37:43;64311.41;;;10.58;99.99
41636;BME280;27623;51.966;4.602;2023-02-11T13:42:57;64302.66;;;10.64;99.23
41636;BME280;27623;51.966;4.602;2023-02-11T13:45:31;64267.88;;;10.62;98.04
41636;BME280;27623;51.966;4.602;2023-02-11T13:47:59;64312.84;;;10.64;97.88
41636;BME280;27623;51.966;4.602;2023-02-11T13:50:27;64300.81;;;10.67;97.38
41636;BME280;27623;51.966;4.602;2023-02-11T13:52:59;64308.09;;;10.69;96.37
41636;BME280;27623;51.966;4.602;2023-02-11T13:55:26;64285.19;;;10.62;96.79
41636;BME280;27623;51.966;4.602;2023-02-11T14:11:53;64330.31;;;10.66;96.11
41636;BME280;27623;51.966;4.602;2023-02-11T14:14:56;64271.34;;;10.61;95.16
41636;BME280;27623;51.966;4.602;2023-02-11T14:17:30;64293.03;;;10.57;95.49
41636;BME280;27623;51.966;4.602;2023-02-11T14:19:56;64295.91;;;10.62;95.60
41636;BME280;27623;51.966;4.602;2023-02-11T14:22:46;64314.50;;;10.58;94.86
41636;BME280;27623;51.966;4.602;2023-02-11T14:25:22;64297.59;;;10.57;94.59
41636;BME280;27623;51.966;4.602;2023-02-11T14:27:50;64300.50;;;10.55;94.91
41636;BME280;27623;51.966;4.602;2023-02-11T14:40:54;64293.03;;;10.57;94.43
41636;BME280;27623;51.966;4.602;2023-02-11T14:43:25;64260.09;;;10.53;94.55
41636;BME280;27623;51.966;4.602;2023-02-11T14:45:55;64308.88;;;10.51;94.54
41636;BME280;27623;51.966;4.602;2023-02-11T14:48:34;64281.78;;;10.49;94.65
41636;BME280;27623;51.966;4.602;2023-02-11T14:51:02;64276.13;;;10.49;94.63
41636;BME280;27623;51.966;4.602;2023-02-11T14:53:31;64283.03;;;10.46;94.55
41636;BME280;27623;51.966;4.602;2023-02-11T14:55:57;64291.78;;;10.40;94.40
41636;BME280;27623;51.966;4.602;2023-02-11T14:58:30;64274.34;;;10.38;94.41
41636;BME280;27623;51.966;4.602;2023-02-11T15:01:23;64266.16;;;10.30;94.17
41636;BME280;27623;51.966;4.602;2023-02-11T15:03:53;64265.44;;;10.34;94.07
41636;BME280;27623;51.966;4.602;2023-02-11T15:06:29;64263.44;;;10.35;93.77
41636;BME280;27623;51.966;4.602;2023-02-11T15:09:02;64272.16;;;10.36;93.60
41636;BME280;27623;51.966;4.602;2023-02-11T15:11:32;64232.88;;;10.35;93.76
41636;BME280;27623;51.966;4.602;2023-02-11T15:14:06;64269.25;;;10.30;93.85
41636;BME280;27623;51.966;4.602;2023-02-11T15:16:33;64241.06;;;10.28;94.05
41636;BME280;27623;51.966;4.602;2023-02-11T15:19:05;64275.25;;;10.29;94.62
41636;BME280;27623;51.966;4.602;2023-02-11T15:21:33;64305.66;;;10.26;94.16